createdAt,value
2022-10-25T00:01:51.611Z,100731.53
2022-10-25T00:06:53.753Z,100734.81
2022-10-25T00:09:21.625Z,100732.50
2022-10-25T00:11:49.534Z,100723.53
2022-10-25T00:14:19.443Z,100720.06
2022-10-25T00:16:47.466Z,100730.25
2022-10-25T00:19:15.417Z,100720.53
2022-10-25T00:21:44.709Z,100728.56
2022-10-25T00:24:12.947Z,100728.09
2022-10-25T00:26:41.713Z,100729.97
2022-10-25T00:29:10.046Z,100722.09
2022-10-25T00:31:39.213Z,100727.06
2022-10-25T00:34:07.108Z,100726.09
2022-10-25T00:36:35.015Z,100727.81
2022-10-25T00:39:04.781Z,100725.91
2022-10-25T00:41:34.250Z,100735.66
2022-10-25T00:44:35.138Z,100728.63
2022-10-25T00:47:04.548Z,100737.94
2022-10-25T00:49:33.296Z,100731.22
2022-10-25T00:52:03.365Z,100735.06
2022-10-25T00:54:36.965Z,100729.63
2022-10-25T00:57:09.958Z,100738.81
2022-10-25T00:59:38.408Z,100740.91
2022-10-25T01:02:06.550Z,100745.34
2022-10-25T01:04:35.148Z,100739.63
2022-10-25T01:07:04.145Z,100739.84
2022-10-25T01:09:35.465Z,100747.72
2022-10-25T01:12:03.794Z,100742.88
2022-10-25T01:14:32.759Z,100746.00
2022-10-25T01:17:07.329Z,100756.44
2022-10-25T01:19:48.009Z,100744.28
2022-10-25T01:22:18.940Z,100745.56
2022-10-25T01:25:19.081Z,100747.25
2022-10-25T01:30:25.572Z,100752.28
2022-10-25T01:33:09.901Z,100748.41
2022-10-25T01:35:45.849Z,100752.56
2022-10-25T01:38:26.389Z,100749.84
2022-10-25T01:41:02.193Z,100750.28
2022-10-25T01:43:35.303Z,100758.69
2022-10-25T01:46:10.818Z,100750.53
2022-10-25T01:48:43.156Z,100754.16
2022-10-25T01:51:12.474Z,100749.97
2022-10-25T01:53:48.141Z,100745.69
2022-10-25T01:56:21.112Z,100754.59
2022-10-25T01:59:02.990Z,100754.06
2022-10-25T02:01:38.451Z,100754.75
2022-10-25T02:04:11.700Z,100756.91
2022-10-25T02:06:45.634Z,100758.06
2022-10-25T02:09:18.197Z,100757.38
2022-10-25T02:11:46.109Z,100770.25
2022-10-25T02:14:19.789Z,100757.47
2022-10-25T02:16:50.682Z,100764.78
2022-10-25T02:19:22.421Z,100763.63
2022-10-25T02:21:50.837Z,100763.16
2022-10-25T02:24:22.706Z,100759.91
2022-10-25T02:26:51.690Z,100764.44
2022-10-25T02:29:20.398Z,100764.03
2022-10-25T02:31:48.381Z,100764.19
2022-10-25T02:34:16.414Z,100771.03
2022-10-25T02:36:49.366Z,100778.34
2022-10-25T02:39:18.425Z,100769.84
2022-10-25T02:41:46.365Z,100766.84
2022-10-25T02:44:14.370Z,100770.41
2022-10-25T02:46:42.233Z,100772.28
2022-10-25T02:49:10.250Z,100773.31
2022-10-25T02:51:38.609Z,100771.28
2022-10-25T02:54:07.925Z,100780.13
2022-10-25T02:56:35.819Z,100779.53
2022-10-25T02:59:03.780Z,100784.13
2022-10-25T03:01:31.892Z,100788.56
2022-10-25T03:03:59.873Z,100791.88
2022-10-25T03:06:27.786Z,100788.00
2022-10-25T03:08:55.696Z,100793.28
2022-10-25T03:11:24.950Z,100795.56
2022-10-25T03:13:52.850Z,100798.31
2022-10-25T03:16:20.733Z,100802.31
2022-10-25T03:18:48.749Z,100804.63
2022-10-25T03:21:16.770Z,100804.63
2022-10-25T03:23:44.666Z,100808.59
2022-10-25T03:26:12.563Z,100812.88
2022-10-25T03:28:41.850Z,100820.06
2022-10-25T03:31:12.605Z,100807.59
2022-10-25T03:33:40.602Z,100808.16
2022-10-25T03:36:09.001Z,100810.72
2022-10-25T03:38:37.203Z,100814.44
2022-10-25T03:41:05.202Z,100816.00
2022-10-25T03:43:33.083Z,100814.16
2022-10-25T03:46:02.371Z,100821.63
2022-10-25T03:48:30.262Z,100822.78
2022-10-25T03:50:58.211Z,100826.66
2022-10-25T03:53:26.086Z,100815.03
2022-10-25T03:55:54.031Z,100826.94
2022-10-25T03:58:21.898Z,100826.53
2022-10-25T04:00:49.793Z,100828.84
2022-10-25T04:03:19.152Z,100831.41
2022-10-25T04:05:47.056Z,100833.25
2022-10-25T04:08:14.916Z,100836.97
2022-10-25T04:10:42.818Z,100842.41
2022-10-25T04:13:10.769Z,100840.53
2022-10-25T04:15:38.909Z,100843.09
2022-10-25T04:18:07.292Z,100843.09
2022-10-25T04:20:36.621Z,100847.38
2022-10-25T04:23:04.479Z,100846.38
2022-10-25T04:25:32.469Z,100844.38
2022-10-25T04:28:00.684Z,100839.78
2022-10-25T04:30:28.700Z,100848.13
2022-10-25T04:32:58.185Z,100841.41
2022-10-25T04:35:26.137Z,100850.97
2022-10-25T04:37:58.212Z,100841.25
2022-10-25T04:40:26.398Z,100847.13
2022-10-25T04:42:54.298Z,100848.59
2022-10-25T04:45:22.209Z,100847.72
2022-10-25T04:47:50.137Z,100849.56
2022-10-25T04:50:18.162Z,100845.00
2022-10-25T04:52:46.267Z,100839.72
2022-10-25T04:55:15.837Z,100839.13
2022-10-25T04:57:43.735Z,100840.44
2022-10-25T05:00:12.795Z,100832.56
2022-10-25T05:02:40.765Z,100842.88
2022-10-25T05:05:09.278Z,100846.28
2022-10-25T05:07:37.146Z,100844.44
2022-10-25T05:10:05.353Z,100854.31
2022-10-25T05:12:34.672Z,100848.88
2022-10-25T05:15:02.669Z,100853.16
2022-10-25T05:17:30.607Z,100857.75
2022-10-25T05:19:58.559Z,100850.75
2022-10-25T05:22:27.010Z,100844.72
2022-10-25T05:24:54.922Z,100850.44
2022-10-25T05:27:22.786Z,100856.91
2022-10-25T05:29:52.078Z,100857.78
2022-10-25T05:32:19.992Z,100869.47
2022-10-25T05:34:47.918Z,100864.63
2022-10-25T05:37:15.790Z,100869.19
2022-10-25T05:39:43.682Z,100868.47
2022-10-25T05:42:11.716Z,100872.75
2022-10-25T05:44:39.573Z,100874.47
2022-10-25T05:47:08.977Z,100882.22
2022-10-25T05:49:40.130Z,100883.06
2022-10-25T05:52:08.200Z,100885.22
2022-10-25T05:54:36.145Z,100887.06
2022-10-25T05:57:04.083Z,100891.50
2022-10-25T05:59:32.015Z,100885.34
2022-10-25T06:02:00.027Z,100894.25
2022-10-25T06:04:29.513Z,100893.38
2022-10-25T06:06:58.063Z,100896.78
2022-10-25T06:09:26.000Z,100894.06
2022-10-25T06:11:53.910Z,100895.53
2022-10-25T06:14:21.825Z,100902.13
2022-10-25T06:16:49.725Z,100899.69
2022-10-25T06:19:17.615Z,100904.25
2022-10-25T06:21:47.085Z,100907.97
2022-10-25T06:24:14.968Z,100908.81
2022-10-25T06:26:43.183Z,100914.09
2022-10-25T06:29:11.082Z,100910.97
2022-10-25T06:31:39.173Z,100919.41
2022-10-25T06:34:07.419Z,100914.44
2022-10-25T06:36:35.332Z,100918.56
2022-10-25T06:39:06.824Z,100920.41
2022-10-25T06:41:36.912Z,100917.28
2022-10-25T06:44:06.666Z,100925.31
2022-10-25T06:46:57.850Z,100923.00
2022-10-25T06:49:24.806Z,100924.97
2022-10-25T06:51:52.693Z,100924.84
2022-10-25T06:54:22.094Z,100927.88
2022-10-25T06:56:49.967Z,100940.31
2022-10-25T06:59:17.974Z,100944.59
2022-10-25T07:01:46.050Z,100951.63
2022-10-25T07:04:14.209Z,100951.19
2022-10-25T07:06:42.617Z,100954.03
2022-10-25T07:09:12.486Z,100944.16
2022-10-25T07:11:41.844Z,100954.75
2022-10-25T07:14:11.191Z,100957.47
2022-10-25T07:16:39.154Z,100956.31
2022-10-25T07:19:07.186Z,100955.84
2022-10-25T07:21:35.192Z,100962.16
2022-10-25T07:24:03.509Z,100958.88
2022-10-25T07:26:32.914Z,100963.72
2022-10-25T07:29:03.699Z,100970.31
2022-10-25T07:31:33.743Z,100974.75
2022-10-25T07:34:02.807Z,100972.31
2022-10-25T07:36:30.761Z,100974.91
2022-10-25T07:38:59.120Z,100981.75
2022-10-25T07:41:27.518Z,100986.78
2022-10-25T07:43:56.001Z,100992.34
2022-10-25T07:46:25.582Z,100999.78
2022-10-25T07:48:53.550Z,101001.22
2022-10-25T07:51:21.657Z,100997.06
2022-10-25T07:53:50.012Z,101004.47
2022-10-25T07:56:22.494Z,101003.94
2022-10-25T07:58:52.351Z,101009.34
2022-10-25T08:01:22.102Z,101011.59
2022-10-25T08:03:51.864Z,101011.31
2022-10-25T08:06:20.752Z,101012.88
2022-10-25T08:08:49.007Z,101015.19
2022-10-25T08:11:17.138Z,101015.31
2022-10-25T08:13:45.114Z,101025.75
2022-10-25T08:16:12.994Z,101030.94
2022-10-25T08:18:41.298Z,101029.50
2022-10-25T08:21:10.609Z,101031.47
2022-10-25T08:23:38.616Z,101037.03
2022-10-25T08:26:06.767Z,101041.19
2022-10-25T08:28:34.733Z,101037.88
2022-10-25T08:31:04.298Z,101041.59
2022-10-25T08:33:33.161Z,101039.59
2022-10-25T08:36:02.066Z,101047.63
2022-10-25T08:38:31.414Z,101054.22
2022-10-25T08:41:04.496Z,101053.06
2022-10-25T08:43:50.156Z,101055.78
2022-10-25T08:46:22.258Z,101055.63
2022-10-25T08:48:52.729Z,101060.03
2022-10-25T08:51:26.525Z,101070.47
2022-10-25T08:53:58.503Z,101073.63
2022-10-25T08:56:27.322Z,101083.53
2022-10-25T08:58:57.769Z,101086.22
2022-10-25T09:01:29.604Z,101089.66
2022-10-25T09:03:57.749Z,101090.78
2022-10-25T09:06:33.455Z,101092.56
2022-10-25T09:09:16.305Z,101099.75
2022-10-25T09:11:53.473Z,101090.88
2022-10-25T09:14:31.221Z,101096.91
2022-10-25T09:17:04.264Z,101110.16
2022-10-25T09:19:35.719Z,101110.84
2022-10-25T09:22:04.898Z,101109.97
2022-10-25T09:24:40.824Z,101107.06
2022-10-25T09:27:09.774Z,101107.34
2022-10-25T09:29:39.480Z,101111.84
2022-10-25T09:32:15.258Z,101116.34
2022-10-25T09:34:44.696Z,101118.44
2022-10-25T09:37:19.003Z,101116.72
2022-10-25T09:39:51.843Z,101123.88
2022-10-25T09:42:24.297Z,101127.41
2022-10-25T09:44:54.560Z,101113.59
2022-10-25T09:47:40.899Z,101133.41
2022-10-25T09:50:13.854Z,101134.13
2022-10-25T09:52:45.091Z,101132.50
2022-10-25T09:55:33.088Z,101129.47
2022-10-25T09:58:01.418Z,101141.69
2022-10-25T10:00:29.454Z,101133.19
2022-10-25T10:02:57.524Z,101144.81
2022-10-25T10:05:25.556Z,101139.34
2022-10-25T10:07:58.915Z,101140.84
2022-10-25T10:10:33.862Z,101149.75
2022-10-25T10:13:06.394Z,101156.44
2022-10-25T10:15:39.315Z,101155.28
2022-10-25T10:18:24.472Z,101161.75
2022-10-25T10:21:01.771Z,101166.50
2022-10-25T10:23:33.414Z,101156.75
2022-10-25T10:26:12.079Z,101161.25
2022-10-25T10:28:45.879Z,101160.19
2022-10-25T10:31:13.849Z,101162.03
2022-10-25T10:33:42.769Z,101164.69
2022-10-25T10:36:28.466Z,101166.59
2022-10-25T10:38:58.573Z,101167.09
2022-10-25T10:41:29.534Z,101174.41
2022-10-25T10:44:11.700Z,101172.06
2022-10-25T10:46:45.285Z,101184.69
2022-10-25T10:49:13.986Z,101182.75
2022-10-25T10:51:45.295Z,101181.03
2022-10-25T10:54:23.816Z,101177.06
2022-10-25T10:57:00.980Z,101178.59
2022-10-25T10:59:38.330Z,101178.41
2022-10-25T11:02:25.199Z,101181.53
2022-10-25T11:04:54.706Z,101181.19
2022-10-25T11:07:29.928Z,101190.34
2022-10-25T11:10:20.070Z,101188.03
2022-10-25T11:13:06.239Z,101191.94
2022-10-25T11:15:40.062Z,101192.44
2022-10-25T11:18:08.982Z,101188.25
2022-10-25T11:20:46.914Z,101196.47
2022-10-25T11:23:20.523Z,101201.75
2022-10-25T11:25:52.487Z,101203.81
2022-10-25T11:28:35.638Z,101202.97
2022-10-25T11:31:09.600Z,101204.44
2022-10-25T11:33:48.135Z,101204.56
2022-10-25T11:36:29.475Z,101212.06
2022-10-25T11:39:05.407Z,101214.81
2022-10-25T11:41:42.495Z,101218.81
2022-10-25T11:44:24.281Z,101213.56
2022-10-25T11:46:56.133Z,101220.81
2022-10-25T11:49:35.619Z,101227.63
2022-10-25T11:52:20.311Z,101219.66
2022-10-25T11:54:53.911Z,101229.84
2022-10-25T11:57:30.995Z,101227.63
2022-10-25T12:00:06.841Z,101225.84
2022-10-25T12:02:47.899Z,101220.91
2022-10-25T12:05:23.969Z,101212.50
2022-10-25T12:07:57.657Z,101222.78
2022-10-25T12:10:32.228Z,101226.22
2022-10-25T12:13:01.785Z,101226.38
2022-10-25T12:15:37.589Z,101234.03
2022-10-25T12:18:06.703Z,101235.22
2022-10-25T12:23:13.460Z,101230.06
2022-10-25T12:25:42.842Z,101235.69
2022-10-25T12:28:18.059Z,101242.31
2022-10-25T12:30:48.112Z,101240.63
2022-10-25T12:33:21.700Z,101237.31
2022-10-25T12:35:51.434Z,101244.69
2022-10-25T12:38:25.557Z,101243.84
2022-10-25T12:40:55.859Z,101241.13
2022-10-25T12:43:28.594Z,101239.97
2022-10-25T12:46:07.476Z,101238.91
2022-10-25T12:48:58.609Z,101242.16
2022-10-25T12:51:39.211Z,101252.78
2022-10-25T12:54:28.844Z,101252.59
2022-10-25T12:57:04.918Z,101249.44
2022-10-25T12:59:43.150Z,101251.91
2022-10-25T13:02:48.887Z,101254.53
2022-10-25T13:05:34.247Z,101258.72
2022-10-25T13:08:04.468Z,101263.78
2022-10-25T13:10:35.378Z,101266.59
2022-10-25T13:13:04.658Z,101264.69
2022-10-25T13:15:42.063Z,101266.47
2022-10-25T13:18:28.004Z,101268.53
2022-10-25T13:20:56.285Z,101262.34
2022-10-25T13:23:59.486Z,101262.16
2022-10-25T13:26:31.803Z,101260.22
2022-10-25T13:29:03.110Z,101268.25
2022-10-25T13:31:48.341Z,101260.53
2022-10-25T13:34:34.469Z,101265.31
2022-10-25T13:37:04.095Z,101273.91
2022-10-25T13:39:34.263Z,101284.09
2022-10-25T13:42:04.476Z,101284.41
2022-10-25T13:44:32.401Z,101291.00
2022-10-25T13:47:00.327Z,101291.38
2022-10-25T13:49:31.700Z,101290.47
2022-10-25T13:52:02.054Z,101291.88
2022-10-25T13:54:42.052Z,101285.16
2022-10-25T13:57:42.998Z,101285.81
2022-10-25T14:00:13.526Z,101278.00
2022-10-25T14:03:14.417Z,101281.78
2022-10-25T14:06:18.898Z,101282.34
2022-10-25T14:08:53.810Z,101284.22
2022-10-25T14:11:24.862Z,101279.44
2022-10-25T14:13:57.210Z,101268.69
2022-10-25T14:16:28.422Z,101273.81
2022-10-25T14:18:59.093Z,101268.38
2022-10-25T14:21:27.299Z,101276.69
2022-10-25T14:23:56.747Z,101281.09
2022-10-25T14:26:24.708Z,101281.41
2022-10-25T14:28:52.617Z,101283.13
2022-10-25T14:31:22.191Z,101281.34
2022-10-25T14:33:54.646Z,101284.59
2022-10-25T14:36:27.975Z,101277.66
2022-10-25T14:38:59.026Z,101288.97
2022-10-25T14:41:28.393Z,101285.41
2022-10-25T14:43:56.543Z,101286.38
2022-10-25T14:46:25.225Z,101287.03
2022-10-25T14:48:56.166Z,101286.25
2022-10-25T14:51:27.289Z,101283.00
2022-10-25T14:53:59.227Z,101289.47
2022-10-25T14:56:30.332Z,101282.56
2022-10-25T14:58:58.780Z,101281.78
2022-10-25T15:01:27.180Z,101288.56
2022-10-25T15:03:57.765Z,101285.25
2022-10-25T15:06:28.294Z,101287.81
2022-10-25T15:09:29.129Z,101295.88
2022-10-25T15:12:09.090Z,101280.22
2022-10-25T15:14:37.132Z,101289.03
2022-10-25T15:17:06.272Z,101282.13
2022-10-25T15:19:34.369Z,101284.31
2022-10-25T15:22:10.839Z,101280.88
2022-10-25T15:24:48.770Z,101278.16
2022-10-25T15:27:27.299Z,101277.59
2022-10-25T15:29:55.557Z,101281.75
2022-10-25T15:32:26.426Z,101282.47
2022-10-25T15:34:55.638Z,101279.31
2022-10-25T15:37:25.194Z,101277.44
2022-10-25T15:39:56.096Z,101275.88
2022-10-25T15:42:25.393Z,101280.19
2022-10-25T15:44:53.404Z,101282.91
2022-10-25T15:47:28.130Z,101286.03
2022-10-25T15:49:56.389Z,101287.59
2022-10-25T15:52:24.341Z,101287.31
2022-10-25T15:54:52.271Z,101281.97
2022-10-25T15:57:21.776Z,101289.88
2022-10-25T15:59:49.666Z,101289.44
2022-10-25T16:02:21.786Z,101289.31
2022-10-25T16:04:50.078Z,101298.19
2022-10-25T16:07:18.066Z,101288.28
2022-10-25T16:09:46.052Z,101291.38
2022-10-25T16:12:21.849Z,101290.81
2022-10-25T16:14:50.958Z,101296.28
2022-10-25T16:17:18.833Z,101289.25
2022-10-25T16:19:46.745Z,101293.84
2022-10-25T16:22:14.686Z,101298.13
2022-10-25T16:24:42.694Z,101308.31
2022-10-25T16:27:12.278Z,101313.03
2022-10-25T16:29:41.603Z,101313.44
2022-10-25T16:32:09.551Z,101319.19
2022-10-25T16:34:42.428Z,101314.75
2022-10-25T16:37:11.901Z,101316.91
2022-10-25T16:39:40.156Z,101327.91
2022-10-25T16:42:29.182Z,101324.88
2022-10-25T16:44:58.913Z,101325.88
2022-10-25T16:47:26.932Z,101319.84
2022-10-25T16:49:55.196Z,101329.13
2022-10-25T16:52:23.120Z,101332.72
2022-10-25T16:54:50.994Z,101334.53
2022-10-25T16:57:18.899Z,101334.28
2022-10-25T16:59:46.789Z,101335.84
2022-10-25T17:02:19.634Z,101336.94
2022-10-25T17:04:48.526Z,101340.72
2022-10-25T17:07:16.575Z,101339.00
2022-10-25T17:09:44.511Z,101349.03
2022-10-25T17:12:13.219Z,101339.53
2022-10-25T17:14:41.120Z,101340.78
2022-10-25T17:17:09.101Z,101340.94
2022-10-25T17:19:38.407Z,101339.19
2022-10-25T17:22:06.453Z,101344.09
2022-10-25T17:24:37.585Z,101345.84
2022-10-25T17:29:38.717Z,101349.88
2022-10-25T17:32:07.039Z,101359.03
2022-10-25T17:34:34.933Z,101359.28
2022-10-25T17:37:04.295Z,101359.44
2022-10-25T17:39:32.193Z,101354.38
2022-10-25T17:42:00.096Z,101365.41
2022-10-25T17:44:27.999Z,101360.78
2022-10-25T17:46:58.348Z,101368.53
2022-10-25T17:49:28.803Z,101368.44
2022-10-25T17:51:56.705Z,101365.56
2022-10-25T17:54:25.993Z,101359.56
2022-10-25T17:56:58.531Z,101366.06
2022-10-25T17:59:27.745Z,101369.56
2022-10-25T18:01:55.953Z,101369.81
2022-10-25T18:04:24.521Z,101367.09
2022-10-25T18:06:52.454Z,101373.16
2022-10-25T18:09:20.498Z,101375.47
2022-10-25T18:11:49.964Z,101366.13
2022-10-25T18:14:17.894Z,101375.75
2022-10-25T18:16:45.984Z,101363.41
2022-10-25T18:19:15.362Z,101363.25
2022-10-25T18:21:43.258Z,101364.78
2022-10-25T18:24:13.253Z,101370.22
2022-10-25T18:26:41.149Z,101367.91
2022-10-25T18:29:11.070Z,101372.22
2022-10-25T18:31:38.956Z,101365.31
2022-10-25T18:34:06.909Z,101365.97
2022-10-25T18:36:34.805Z,101377.22
2022-10-25T18:39:02.733Z,101374.50
2022-10-25T18:41:32.325Z,101377.94
2022-10-25T18:44:02.385Z,101374.91
2022-10-25T18:46:32.734Z,101370.38
2022-10-25T18:49:00.685Z,101369.34
2022-10-25T18:51:29.347Z,101377.41
2022-10-25T18:53:58.323Z,101370.22
2022-10-25T18:56:26.817Z,101377.25
2022-10-25T18:58:56.797Z,101375.28
2022-10-25T19:01:26.140Z,101371.88
2022-10-25T19:03:58.176Z,101376.19
2022-10-25T19:06:26.573Z,101373.72
2022-10-25T19:08:55.406Z,101380.03
2022-10-25T19:11:23.596Z,101376.31
2022-10-25T19:13:54.149Z,101373.97
2022-10-25T19:16:22.281Z,101374.59
2022-10-25T19:18:50.179Z,101371.88
2022-10-25T19:21:19.881Z,101372.22
2022-10-25T19:23:47.925Z,101375.19
2022-10-25T19:26:18.747Z,101366.44
2022-10-25T19:28:47.238Z,101363.84
2022-10-25T19:31:17.030Z,101370.53
2022-10-25T19:33:46.634Z,101377.66
2022-10-25T19:36:14.554Z,101366.94
2022-10-25T19:38:45.121Z,101368.56
2022-10-25T19:41:16.182Z,101367.84
2022-10-25T19:43:44.079Z,101373.38
2022-10-25T19:46:12.455Z,101374.88
2022-10-25T19:48:40.766Z,101363.28
2022-10-25T19:51:09.816Z,101371.06
2022-10-25T19:53:38.110Z,101366.75
2022-10-25T19:56:09.352Z,101361.31
2022-10-25T19:58:37.757Z,101369.66
2022-10-25T20:01:08.165Z,101373.25
2022-10-25T20:03:36.692Z,101373.03
2022-10-25T20:06:06.862Z,101373.25
2022-10-25T20:08:35.770Z,101372.28
2022-10-25T20:11:04.992Z,101376.75
2022-10-25T20:13:34.293Z,101374.75
2022-10-25T20:16:02.256Z,101376.13
2022-10-25T20:18:31.938Z,101374.41
2022-10-25T20:21:01.266Z,101376.88
2022-10-25T20:23:29.204Z,101382.16
2022-10-25T20:25:57.153Z,101382.16
2022-10-25T20:28:25.396Z,101385.41
2022-10-25T20:30:54.661Z,101383.03
2022-10-25T20:33:22.590Z,101381.81
2022-10-25T20:35:50.454Z,101379.09
2022-10-25T20:38:18.355Z,101389.81
2022-10-25T20:40:46.324Z,101389.81
2022-10-25T20:43:14.217Z,101389.31
2022-10-25T20:45:44.100Z,101392.53
2022-10-25T20:48:13.402Z,101401.28
2022-10-25T20:50:45.952Z,101397.56
2022-10-25T20:53:14.282Z,101406.22
2022-10-25T20:55:42.182Z,101413.50
2022-10-25T20:58:10.069Z,101409.66
2022-10-25T21:00:38.224Z,101414.13
2022-10-25T21:03:06.237Z,101412.50
2022-10-25T21:05:36.958Z,101415.22
2022-10-25T21:08:06.033Z,101415.78
2022-10-25T21:10:36.140Z,101411.25
2022-10-25T21:13:04.331Z,101426.53
2022-10-25T21:15:32.211Z,101426.53
2022-10-25T21:18:00.297Z,101425.66
2022-10-25T21:20:28.557Z,101423.72
2022-10-25T21:22:58.117Z,101425.38
2022-10-25T21:25:26.115Z,101428.00
2022-10-25T21:27:56.134Z,101422.91
2022-10-25T21:30:24.565Z,101431.28
2022-10-25T21:32:52.679Z,101426.13
2022-10-25T21:35:21.326Z,101425.47
2022-10-25T21:37:49.599Z,101425.13
2022-10-25T21:40:19.708Z,101429.75
2022-10-25T21:42:47.630Z,101425.13
2022-10-25T21:45:15.573Z,101424.97
2022-10-25T21:47:43.473Z,101429.84
2022-10-25T21:50:11.586Z,101425.31
2022-10-25T21:52:39.534Z,101431.97
2022-10-25T21:55:08.371Z,101428.16
2022-10-25T21:57:37.726Z,101431.13
2022-10-25T22:00:06.615Z,101431.22
2022-10-25T22:02:34.723Z,101421.63
2022-10-25T22:05:02.804Z,101423.84
2022-10-25T22:07:30.669Z,101424.84
2022-10-25T22:09:58.566Z,101431.59
2022-10-25T22:12:26.481Z,101428.66
2022-10-25T22:14:55.801Z,101433.19
2022-10-25T22:17:23.741Z,101429.16
2022-10-25T22:19:51.635Z,101429.38
2022-10-25T22:22:19.560Z,101428.44
2022-10-25T22:24:47.426Z,101423.84
2022-10-25T22:27:15.334Z,101427.16
2022-10-25T22:29:43.221Z,101430.34
2022-10-25T22:32:12.670Z,101431.31
2022-10-25T22:34:40.554Z,101425.78
2022-10-25T22:37:08.678Z,101424.53
2022-10-25T22:39:36.641Z,101423.13
2022-10-25T22:42:11.441Z,101427.34
2022-10-25T22:44:39.802Z,101419.22
2022-10-25T22:47:07.670Z,101423.13
2022-10-25T22:49:36.917Z,101427.22
2022-10-25T22:52:05.165Z,101417.50
2022-10-25T22:54:33.027Z,101415.72
2022-10-25T22:57:00.972Z,101419.84
2022-10-25T22:59:28.892Z,101424.66
2022-10-25T23:01:56.760Z,101418.13
2022-10-25T23:04:24.741Z,101424.28
2022-10-25T23:06:54.118Z,101415.75
2022-10-25T23:09:22.285Z,101424.66
2022-10-25T23:11:51.054Z,101421.06
2022-10-25T23:14:18.935Z,101423.66
2022-10-25T23:16:46.850Z,101425.97
2022-10-25T23:19:14.810Z,101421.16
2022-10-25T23:21:42.703Z,101421.75
2022-10-25T23:24:12.042Z,101425.56
2022-10-25T23:26:40.099Z,101426.50
2022-10-25T23:29:08.053Z,101420.66
2022-10-25T23:31:36.050Z,101418.97
2022-10-25T23:34:03.934Z,101422.63
2022-10-25T23:36:37.595Z,101422.72
2022-10-25T23:39:06.259Z,101425.00
2022-10-25T23:41:35.574Z,101416.25
2022-10-25T23:44:03.559Z,101413.00
2022-10-25T23:46:31.473Z,101411.25
2022-10-25T23:48:59.497Z,101406.06
2022-10-25T23:51:27.400Z,101410.09
2022-10-25T23:53:55.312Z,101411.97
2022-10-25T23:56:23.202Z,101411.19
2022-10-25T23:58:53.796Z,101412.75
